sensor_id;sensor_type;location;lat;lon;timestamp;temperature;humidity
13817;DHT22;6979;52.116;5.286;2022-08-02T00:00:53;19.80;99.90
13817;DHT22;6979;52.116;5.286;2022-08-02T00:03:19;19.80;99.90
13817;DHT22;6979;52.116;5.286;2022-08-02T00:05:48;19.80;99.90
13817;DHT22;6979;52.116;5.286;2022-08-02T00:08:14;19.80;99.90
13817;DHT22;6979;52.116;5.286;2022-08-02T00:10:41;19.80;99.90
13817;DHT22;6979;52.116;5.286;2022-08-02T00:13:08;19.80;99.90
13817;DHT22;6979;52.116;5.286;2022-08-02T00:15:35;19.80;99.90
13817;DHT22;6979;52.116;5.286;2022-08-02T00:18:01;19.80;99.90
13817;DHT22;6979;52.116;5.286;2022-08-02T00:20:28;19.80;99.90
13817;DHT22;6979;52.116;5.286;2022-08-02T00:22:56;19.80;99.90
13817;DHT22;6979;52.116;5.286;2022-08-02T00:25:23;19.80;99.90
13817;DHT22;6979;52.116;5.286;2022-08-02T00:27:50;19.80;99.90
13817;DHT22;6979;52.116;5.286;2022-08-02T00:30:17;19.80;99.90
13817;DHT22;6979;52.116;5.286;2022-08-02T00:32:43;19.80;99.90
13817;DHT22;6979;52.116;5.286;2022-08-02T00:35:10;19.80;99.90
13817;DHT22;6979;52.116;5.286;2022-08-02T00:37:38;19.80;99.90
13817;DHT22;6979;52.116;5.286;2022-08-02T00:40:08;19.80;99.90
13817;DHT22;6979;52.116;5.286;2022-08-02T00:42:35;19.80;99.90
13817;DHT22;6979;52.116;5.286;2022-08-02T00:45:02;19.80;99.90
13817;DHT22;6979;52.116;5.286;2022-08-02T00:47:29;19.70;99.90
13817;DHT22;6979;52.116;5.286;2022-08-02T00:49:55;19.70;99.90
13817;DHT22;6979;52.116;5.286;2022-08-02T00:52:22;19.70;99.90
13817;DHT22;6979;52.116;5.286;2022-08-02T00:54:49;19.70;99.90
13817;DHT22;6979;52.116;5.286;2022-08-02T00:57:17;19.70;99.90
13817;DHT22;6979;52.116;5.286;2022-08-02T00:59:44;19.70;99.90
13817;DHT22;6979;52.116;5.286;2022-08-02T01:02:11;19.70;99.90
13817;DHT22;6979;52.116;5.286;2022-08-02T01:04:38;19.60;99.90
13817;DHT22;6979;52.116;5.286;2022-08-02T01:07:05;19.60;99.90
13817;DHT22;6979;52.116;5.286;2022-08-02T01:09:31;19.60;99.90
13817;DHT22;6979;52.116;5.286;2022-08-02T01:11:58;19.60;99.90
13817;DHT22;6979;52.116;5.286;2022-08-02T01:14:26;19.60;99.90
13817;DHT22;6979;52.116;5.286;2022-08-02T01:17:00;19.60;99.90
13817;DHT22;6979;52.116;5.286;2022-08-02T01:19:36;19.60;99.90
13817;DHT22;6979;52.116;5.286;2022-08-02T01:22:28;19.60;99.90
13817;DHT22;6979;52.116;5.286;2022-08-02T01:25:25;19.60;99.90
13817;DHT22;6979;52.116;5.286;2022-08-02T01:28:10;19.60;99.90
13817;DHT22;6979;52.116;5.286;2022-08-02T01:30:42;19.60;99.90
13817;DHT22;6979;52.116;5.286;2022-08-02T01:33:12;19.60;99.90
13817;DHT22;6979;52.116;5.286;2022-08-02T01:35:46;19.60;99.90
13817;DHT22;6979;52.116;5.286;2022-08-02T01:38:19;19.60;99.90
13817;DHT22;6979;52.116;5.286;2022-08-02T01:40:48;19.60;99.90
13817;DHT22;6979;52.116;5.286;2022-08-02T01:43:19;19.60;99.90
13817;DHT22;6979;52.116;5.286;2022-08-02T01:45:47;19.60;99.90
13817;DHT22;6979;52.116;5.286;2022-08-02T01:48:15;19.60;99.90
13817;DHT22;6979;52.116;5.286;2022-08-02T01:50:42;19.60;99.90
13817;DHT22;6979;52.116;5.286;2022-08-02T01:53:11;19.60;99.90
13817;DHT22;6979;52.116;5.286;2022-08-02T01:55:42;19.60;99.90
13817;DHT22;6979;52.116;5.286;2022-08-02T01:58:10;19.70;99.90
13817;DHT22;6979;52.116;5.286;2022-08-02T02:00:41;19.70;99.90
13817;DHT22;6979;52.116;5.286;2022-08-02T02:03:11;19.70;99.90
13817;DHT22;6979;52.116;5.286;2022-08-02T02:05:39;19.70;99.90
13817;DHT22;6979;52.116;5.286;2022-08-02T02:08:07;19.80;99.90
13817;DHT22;6979;52.116;5.286;2022-08-02T02:10:37;19.80;99.90
13817;DHT22;6979;52.116;5.286;2022-08-02T02:13:07;19.80;99.90
13817;DHT22;6979;52.116;5.286;2022-08-02T02:15:42;19.90;99.90
13817;DHT22;6979;52.116;5.286;2022-08-02T02:18:12;19.90;99.90
13817;DHT22;6979;52.116;5.286;2022-08-02T02:20:40;19.90;99.90
13817;DHT22;6979;52.116;5.286;2022-08-02T02:23:07;19.90;99.90
13817;DHT22;6979;52.116;5.286;2022-08-02T02:25:35;19.90;99.90
13817;DHT22;6979;52.116;5.286;2022-08-02T02:28:05;19.90;99.90
13817;DHT22;6979;52.116;5.286;2022-08-02T02:30:33;19.90;99.90
13817;DHT22;6979;52.116;5.286;2022-08-02T02:33:04;19.90;99.90
13817;DHT22;6979;52.116;5.286;2022-08-02T02:35:34;20.00;99.90
13817;DHT22;6979;52.116;5.286;2022-08-02T02:38:04;20.00;99.90
13817;DHT22;6979;52.116;5.286;2022-08-02T02:40:32;20.00;99.90
13817;DHT22;6979;52.116;5.286;2022-08-02T02:43:01;20.00;99.90
13817;DHT22;6979;52.116;5.286;2022-08-02T02:45:29;20.00;99.90
13817;DHT22;6979;52.116;5.286;2022-08-02T02:47:57;20.00;99.90
13817;DHT22;6979;52.116;5.286;2022-08-02T02:50:27;20.00;99.90
13817;DHT22;6979;52.116;5.286;2022-08-02T02:52:56;20.00;99.90
13817;DHT22;6979;52.116;5.286;2022-08-02T02:55:24;20.00;99.90
13817;DHT22;6979;52.116;5.286;2022-08-02T02:57:51;20.00;99.90
13817;DHT22;6979;52.116;5.286;2022-08-02T03:00:18;20.00;99.90
13817;DHT22;6979;52.116;5.286;2022-08-02T03:03:06;20.00;99.90
13817;DHT22;6979;52.116;5.286;2022-08-02T03:05:34;20.00;99.90
13817;DHT22;6979;52.116;5.286;2022-08-02T03:08:02;20.00;99.90
13817;DHT22;6979;52.116;5.286;2022-08-02T03:10:28;20.00;99.90
13817;DHT22;6979;52.116;5.286;2022-08-02T03:12:56;20.00;99.90
13817;DHT22;6979;52.116;5.286;2022-08-02T03:15:26;20.00;99.90
13817;DHT22;6979;52.116;5.286;2022-08-02T03:17:53;20.00;99.90
13817;DHT22;6979;52.116;5.286;2022-08-02T03:20:20;20.10;99.90
13817;DHT22;6979;52.116;5.286;2022-08-02T03:22:49;20.10;99.90
13817;DHT22;6979;52.116;5.286;2022-08-02T03:25:16;20.10;99.90
13817;DHT22;6979;52.116;5.286;2022-08-02T03:27:44;20.10;99.90
13817;DHT22;6979;52.116;5.286;2022-08-02T03:30:12;20.10;99.90
13817;DHT22;6979;52.116;5.286;2022-08-02T03:32:40;20.10;99.90
13817;DHT22;6979;52.116;5.286;2022-08-02T03:35:10;20.10;99.90
13817;DHT22;6979;52.116;5.286;2022-08-02T03:37:37;20.10;99.90
13817;DHT22;6979;52.116;5.286;2022-08-02T03:40:08;20.10;99.90
13817;DHT22;6979;52.116;5.286;2022-08-02T03:42:35;20.10;99.90
13817;DHT22;6979;52.116;5.286;2022-08-02T03:45:03;20.10;99.90
13817;DHT22;6979;52.116;5.286;2022-08-02T03:47:31;20.10;99.90
13817;DHT22;6979;52.116;5.286;2022-08-02T03:49:59;20.10;99.90
13817;DHT22;6979;52.116;5.286;2022-08-02T03:52:27;20.10;99.90
13817;DHT22;6979;52.116;5.286;2022-08-02T03:54:54;20.10;99.90
13817;DHT22;6979;52.116;5.286;2022-08-02T03:57:22;20.00;99.90
13817;DHT22;6979;52.116;5.286;2022-08-02T03:59:49;20.10;99.90
13817;DHT22;6979;52.116;5.286;2022-08-02T04:02:16;20.10;99.90
13817;DHT22;6979;52.116;5.286;2022-08-02T04:04:43;20.10;99.90
13817;DHT22;6979;52.116;5.286;2022-08-02T04:07:10;20.10;99.90
13817;DHT22;6979;52.116;5.286;2022-08-02T04:09:36;20.10;99.90
13817;DHT22;6979;52.116;5.286;2022-08-02T04:12:04;20.10;99.90
13817;DHT22;6979;52.116;5.286;2022-08-02T04:14:32;20.10;99.90
13817;DHT22;6979;52.116;5.286;2022-08-02T04:17:02;20.10;99.90
13817;DHT22;6979;52.116;5.286;2022-08-02T04:19:33;20.10;99.90
13817;DHT22;6979;52.116;5.286;2022-08-02T04:22:03;20.10;99.90
13817;DHT22;6979;52.116;5.286;2022-08-02T04:24:38;20.10;99.90
13817;DHT22;6979;52.116;5.286;2022-08-02T04:27:07;20.10;99.90
13817;DHT22;6979;52.116;5.286;2022-08-02T04:29:37;20.10;99.90
13817;DHT22;6979;52.116;5.286;2022-08-02T04:32:05;20.10;99.90
13817;DHT22;6979;52.116;5.286;2022-08-02T04:34:33;20.10;99.90
13817;DHT22;6979;52.116;5.286;2022-08-02T04:37:00;20.10;99.90
13817;DHT22;6979;52.116;5.286;2022-08-02T04:39:27;20.00;99.90
13817;DHT22;6979;52.116;5.286;2022-08-02T04:41:54;20.00;99.90
13817;DHT22;6979;52.116;5.286;2022-08-02T04:44:21;20.00;99.90
13817;DHT22;6979;52.116;5.286;2022-08-02T04:46:49;20.00;99.90
13817;DHT22;6979;52.116;5.286;2022-08-02T04:49:17;19.90;99.90
13817;DHT22;6979;52.116;5.286;2022-08-02T04:51:43;19.90;99.90
13817;DHT22;6979;52.116;5.286;2022-08-02T04:54:11;19.90;99.90
13817;DHT22;6979;52.116;5.286;2022-08-02T04:56:39;19.90;99.90
13817;DHT22;6979;52.116;5.286;2022-08-02T04:59:06;19.80;99.90
13817;DHT22;6979;52.116;5.286;2022-08-02T05:01:33;19.80;99.90
13817;DHT22;6979;52.116;5.286;2022-08-02T05:04:05;19.80;99.90
13817;DHT22;6979;52.116;5.286;2022-08-02T05:06:31;19.70;99.90
13817;DHT22;6979;52.116;5.286;2022-08-02T05:08:58;19.70;99.90
13817;DHT22;6979;52.116;5.286;2022-08-02T05:11:25;19.70;99.90
13817;DHT22;6979;52.116;5.286;2022-08-02T05:13:52;19.70;99.90
13817;DHT22;6979;52.116;5.286;2022-08-02T05:16:19;19.70;99.90
13817;DHT22;6979;52.116;5.286;2022-08-02T05:18:46;19.70;99.90
13817;DHT22;6979;52.116;5.286;2022-08-02T05:21:16;19.70;99.90
13817;DHT22;6979;52.116;5.286;2022-08-02T05:23:43;19.70;99.90
13817;DHT22;6979;52.116;5.286;2022-08-02T05:26:10;19.70;99.90
13817;DHT22;6979;52.116;5.286;2022-08-02T05:28:37;19.70;99.90
13817;DHT22;6979;52.116;5.286;2022-08-02T05:31:03;19.70;99.90
13817;DHT22;6979;52.116;5.286;2022-08-02T05:33:30;19.70;99.90
13817;DHT22;6979;52.116;5.286;2022-08-02T05:35:57;19.80;99.90
13817;DHT22;6979;52.116;5.286;2022-08-02T05:38:25;19.80;99.90
13817;DHT22;6979;52.116;5.286;2022-08-02T05:40:55;19.90;99.90
13817;DHT22;6979;52.116;5.286;2022-08-02T05:43:22;19.90;99.90
13817;DHT22;6979;52.116;5.286;2022-08-02T05:45:49;20.00;99.90
13817;DHT22;6979;52.116;5.286;2022-08-02T05:48:17;20.00;99.90
13817;DHT22;6979;52.116;5.286;2022-08-02T05:50:48;20.10;99.90
13817;DHT22;6979;52.116;5.286;2022-08-02T05:53:23;20.10;99.90
13817;DHT22;6979;52.116;5.286;2022-08-02T05:56:00;20.20;99.90
13817;DHT22;6979;52.116;5.286;2022-08-02T05:58:35;20.30;99.90
13817;DHT22;6979;52.116;5.286;2022-08-02T06:01:08;20.40;99.90
13817;DHT22;6979;52.116;5.286;2022-08-02T06:03:39;20.40;99.90
13817;DHT22;6979;52.116;5.286;2022-08-02T06:06:13;20.50;99.90
13817;DHT22;6979;52.116;5.286;2022-08-02T06:08:43;20.50;99.90
13817;DHT22;6979;52.116;5.286;2022-08-02T06:11:15;20.50;99.90
13817;DHT22;6979;52.116;5.286;2022-08-02T06:13:43;20.60;99.90
13817;DHT22;6979;52.116;5.286;2022-08-02T06:16:11;20.60;99.90
13817;DHT22;6979;52.116;5.286;2022-08-02T06:18:40;20.60;99.90
13817;DHT22;6979;52.116;5.286;2022-08-02T06:21:07;20.70;99.90
13817;DHT22;6979;52.116;5.286;2022-08-02T06:23:40;20.70;99.90
13817;DHT22;6979;52.116;5.286;2022-08-02T06:26:08;20.80;99.90
13817;DHT22;6979;52.116;5.286;2022-08-02T06:28:38;20.80;99.90
13817;DHT22;6979;52.116;5.286;2022-08-02T06:31:05;20.90;99.90
13817;DHT22;6979;52.116;5.286;2022-08-02T06:33:32;20.90;99.90
13817;DHT22;6979;52.116;5.286;2022-08-02T06:36:03;21.00;99.90
13817;DHT22;6979;52.116;5.286;2022-08-02T06:38:39;21.00;99.90
13817;DHT22;6979;52.116;5.286;2022-08-02T06:41:08;21.10;99.90
13817;DHT22;6979;52.116;5.286;2022-08-02T06:43:44;21.10;99.90
13817;DHT22;6979;52.116;5.286;2022-08-02T06:46:12;21.20;99.90
13817;DHT22;6979;52.116;5.286;2022-08-02T06:48:39;21.30;99.90
13817;DHT22;6979;52.116;5.286;2022-08-02T06:51:06;21.30;99.90
13817;DHT22;6979;52.116;5.286;2022-08-02T06:53:33;21.40;99.90
13817;DHT22;6979;52.116;5.286;2022-08-02T06:55:59;21.50;99.90
13817;DHT22;6979;52.116;5.286;2022-08-02T06:58:26;21.60;99.90
13817;DHT22;6979;52.116;5.286;2022-08-02T07:00:54;21.70;99.90
13817;DHT22;6979;52.116;5.286;2022-08-02T07:03:21;21.80;99.90
13817;DHT22;6979;52.116;5.286;2022-08-02T07:05:50;21.80;99.90
13817;DHT22;6979;52.116;5.286;2022-08-02T07:08:17;21.90;99.90
13817;DHT22;6979;52.116;5.286;2022-08-02T07:10:46;22.00;99.90
13817;DHT22;6979;52.116;5.286;2022-08-02T07:13:13;22.10;99.90
13817;DHT22;6979;52.116;5.286;2022-08-02T07:15:41;22.20;99.90
13817;DHT22;6979;52.116;5.286;2022-08-02T07:18:10;22.30;99.90
13817;DHT22;6979;52.116;5.286;2022-08-02T07:20:39;22.40;99.90
13817;DHT22;6979;52.116;5.286;2022-08-02T07:23:06;22.50;99.90
13817;DHT22;6979;52.116;5.286;2022-08-02T07:25:33;22.60;99.90
13817;DHT22;6979;52.116;5.286;2022-08-02T07:28:00;22.70;99.90
13817;DHT22;6979;52.116;5.286;2022-08-02T07:30:27;22.80;99.90
13817;DHT22;6979;52.116;5.286;2022-08-02T07:32:54;22.80;99.90
13817;DHT22;6979;52.116;5.286;2022-08-02T07:35:22;22.90;99.90
13817;DHT22;6979;52.116;5.286;2022-08-02T07:37:49;23.00;99.90
13817;DHT22;6979;52.116;5.286;2022-08-02T07:40:16;23.00;99.90
13817;DHT22;6979;52.116;5.286;2022-08-02T07:42:43;23.10;99.90
13817;DHT22;6979;52.116;5.286;2022-08-02T07:45:11;23.10;99.90
13817;DHT22;6979;52.116;5.286;2022-08-02T07:47:39;23.20;99.90
13817;DHT22;6979;52.116;5.286;2022-08-02T07:50:08;23.30;99.90
13817;DHT22;6979;52.116;5.286;2022-08-02T07:52:38;23.30;99.90
13817;DHT22;6979;52.116;5.286;2022-08-02T07:55:06;23.50;99.90
13817;DHT22;6979;52.116;5.286;2022-08-02T07:57:33;23.50;99.90
13817;DHT22;6979;52.116;5.286;2022-08-02T07:59:59;23.60;99.90
13817;DHT22;6979;52.116;5.286;2022-08-02T08:02:26;23.70;99.90
13817;DHT22;6979;52.116;5.286;2022-08-02T08:04:53;23.80;99.90
13817;DHT22;6979;52.116;5.286;2022-08-02T08:07:20;23.90;99.90
13817;DHT22;6979;52.116;5.286;2022-08-02T08:09:48;24.00;99.90
13817;DHT22;6979;52.116;5.286;2022-08-02T08:12:15;24.10;99.90
13817;DHT22;6979;52.116;5.286;2022-08-02T08:14:43;24.20;99.90
13817;DHT22;6979;52.116;5.286;2022-08-02T08:17:10;24.30;99.90
13817;DHT22;6979;52.116;5.286;2022-08-02T08:19:37;24.40;99.90
13817;DHT22;6979;52.116;5.286;2022-08-02T08:22:04;24.50;99.90
13817;DHT22;6979;52.116;5.286;2022-08-02T08:24:30;24.60;99.90
13817;DHT22;6979;52.116;5.286;2022-08-02T08:26:59;24.70;99.90
13817;DHT22;6979;52.116;5.286;2022-08-02T08:29:25;24.70;99.90
13817;DHT22;6979;52.116;5.286;2022-08-02T08:31:52;24.80;99.90
13817;DHT22;6979;52.116;5.286;2022-08-02T08:34:19;24.90;99.90
13817;DHT22;6979;52.116;5.286;2022-08-02T08:36:46;24.90;99.90
13817;DHT22;6979;52.116;5.286;2022-08-02T08:39:12;25.00;99.90
13817;DHT22;6979;52.116;5.286;2022-08-02T08:41:42;25.10;99.90
13817;DHT22;6979;52.116;5.286;2022-08-02T08:44:10;25.10;99.90
13817;DHT22;6979;52.116;5.286;2022-08-02T08:46:37;25.20;99.90
13817;DHT22;6979;52.116;5.286;2022-08-02T08:49:09;25.30;99.90
13817;DHT22;6979;52.116;5.286;2022-08-02T08:51:41;25.40;99.90
13817;DHT22;6979;52.116;5.286;2022-08-02T08:54:11;25.40;99.90
13817;DHT22;6979;52.116;5.286;2022-08-02T08:56:39;25.50;99.90
13817;DHT22;6979;52.116;5.286;2022-08-02T08:59:07;25.50;99.90
13817;DHT22;6979;52.116;5.286;2022-08-02T09:01:36;25.60;99.90
13817;DHT22;6979;52.116;5.286;2022-08-02T09:04:03;25.70;99.90
13817;DHT22;6979;52.116;5.286;2022-08-02T09:06:30;25.80;99.90
13817;DHT22;6979;52.116;5.286;2022-08-02T09:08:56;26.00;99.90
13817;DHT22;6979;52.116;5.286;2022-08-02T09:11:24;26.40;99.90
13817;DHT22;6979;52.116;5.286;2022-08-02T09:13:53;26.80;99.90
13817;DHT22;6979;52.116;5.286;2022-08-02T09:16:29;27.20;99.90
13817;DHT22;6979;52.116;5.286;2022-08-02T09:18:58;27.70;99.90
13817;DHT22;6979;52.116;5.286;2022-08-02T09:21:34;28.10;99.90
13817;DHT22;6979;52.116;5.286;2022-08-02T09:24:01;28.40;98.40
13817;DHT22;6979;52.116;5.286;2022-08-02T09:26:28;28.60;99.70
13817;DHT22;6979;52.116;5.286;2022-08-02T09:29:00;28.70;98.40
13817;DHT22;6979;52.116;5.286;2022-08-02T09:31:27;28.80;97.30
13817;DHT22;6979;52.116;5.286;2022-08-02T09:33:56;28.90;97.60
13817;DHT22;6979;52.116;5.286;2022-08-02T09:36:25;29.00;97.80
13817;DHT22;6979;52.116;5.286;2022-08-02T09:38:54;29.10;98.40
13817;DHT22;6979;52.116;5.286;2022-08-02T09:41:24;29.30;96.50
13817;DHT22;6979;52.116;5.286;2022-08-02T09:43:51;29.40;96.30
13817;DHT22;6979;52.116;5.286;2022-08-02T09:46:20;29.60;95.50
13817;DHT22;6979;52.116;5.286;2022-08-02T09:48:53;29.70;95.30
13817;DHT22;6979;52.116;5.286;2022-08-02T09:51:22;29.80;93.70
13817;DHT22;6979;52.116;5.286;2022-08-02T09:53:51;29.90;93.30
13817;DHT22;6979;52.116;5.286;2022-08-02T09:56:19;29.90;93.50
13817;DHT22;6979;52.116;5.286;2022-08-02T09:58:47;29.90;94.20
13817;DHT22;6979;52.116;5.286;2022-08-02T10:01:14;29.90;93.90
13817;DHT22;6979;52.116;5.286;2022-08-02T10:03:55;30.00;94.30
13817;DHT22;6979;52.116;5.286;2022-08-02T10:06:24;30.10;93.60
13817;DHT22;6979;52.116;5.286;2022-08-02T10:08:51;30.20;94.20
13817;DHT22;6979;52.116;5.286;2022-08-02T10:11:19;30.30;93.30
13817;DHT22;6979;52.116;5.286;2022-08-02T10:13:46;30.40;92.30
13817;DHT22;6979;52.116;5.286;2022-08-02T10:16:14;30.40;92.60
13817;DHT22;6979;52.116;5.286;2022-08-02T10:18:42;30.30;91.90
13817;DHT22;6979;52.116;5.286;2022-08-02T10:21:13;30.20;91.20
13817;DHT22;6979;52.116;5.286;2022-08-02T10:23:48;30.10;91.40
13817;DHT22;6979;52.116;5.286;2022-08-02T10:26:18;30.00;91.80
13817;DHT22;6979;52.116;5.286;2022-08-02T10:28:46;29.90;91.80
13817;DHT22;6979;52.116;5.286;2022-08-02T10:31:17;30.00;92.60
13817;DHT22;6979;52.116;5.286;2022-08-02T10:33:45;30.10;92.40
13817;DHT22;6979;52.116;5.286;2022-08-02T10:36:14;30.30;91.80
13817;DHT22;6979;52.116;5.286;2022-08-02T10:38:42;30.50;91.40
13817;DHT22;6979;52.116;5.286;2022-08-02T10:41:11;30.60;91.00
13817;DHT22;6979;52.116;5.286;2022-08-02T10:43:43;30.80;90.90
13817;DHT22;6979;52.116;5.286;2022-08-02T10:46:21;31.00;90.20
13817;DHT22;6979;52.116;5.286;2022-08-02T10:49:01;31.10;88.70
13817;DHT22;6979;52.116;5.286;2022-08-02T10:54:33;31.10;87.10
13817;DHT22;6979;52.116;5.286;2022-08-02T10:57:02;31.00;87.40
13817;DHT22;6979;52.116;5.286;2022-08-02T10:59:39;31.00;87.70
13817;DHT22;6979;52.116;5.286;2022-08-02T11:02:06;31.00;86.90
13817;DHT22;6979;52.116;5.286;2022-08-02T11:05:01;31.10;87.20
13817;DHT22;6979;52.116;5.286;2022-08-02T11:07:35;31.30;86.30
13817;DHT22;6979;52.116;5.286;2022-08-02T11:10:31;31.40;86.00
13817;DHT22;6979;52.116;5.286;2022-08-02T11:13:02;31.60;83.80
13817;DHT22;6979;52.116;5.286;2022-08-02T11:15:29;31.70;85.30
13817;DHT22;6979;52.116;5.286;2022-08-02T11:18:12;31.90;84.20
13817;DHT22;6979;52.116;5.286;2022-08-02T11:20:39;32.00;83.00
13817;DHT22;6979;52.116;5.286;2022-08-02T11:23:34;32.10;83.40
13817;DHT22;6979;52.116;5.286;2022-08-02T11:26:01;32.20;81.90
13817;DHT22;6979;52.116;5.286;2022-08-02T11:28:31;32.20;82.00
13817;DHT22;6979;52.116;5.286;2022-08-02T11:30:59;32.30;81.10
13817;DHT22;6979;52.116;5.286;2022-08-02T11:33:30;32.40;81.00
13817;DHT22;6979;52.116;5.286;2022-08-02T11:36:01;32.40;79.40
13817;DHT22;6979;52.116;5.286;2022-08-02T11:38:28;32.50;80.40
13817;DHT22;6979;52.116;5.286;2022-08-02T11:40:55;32.50;77.80
13817;DHT22;6979;52.116;5.286;2022-08-02T11:43:23;32.50;78.60
13817;DHT22;6979;52.116;5.286;2022-08-02T11:45:53;32.50;79.00
13817;DHT22;6979;52.116;5.286;2022-08-02T11:48:31;32.50;78.50
13817;DHT22;6979;52.116;5.286;2022-08-02T11:51:05;32.60;76.70
13817;DHT22;6979;52.116;5.286;2022-08-02T11:53:44;32.60;76.70
13817;DHT22;6979;52.116;5.286;2022-08-02T11:56:12;32.60;75.60
13817;DHT22;6979;52.116;5.286;2022-08-02T11:58:39;32.60;77.00
13817;DHT22;6979;52.116;5.286;2022-08-02T12:01:07;32.60;74.90
13817;DHT22;6979;52.116;5.286;2022-08-02T12:03:36;32.50;76.00
13817;DHT22;6979;52.116;5.286;2022-08-02T12:06:04;32.50;76.00
13817;DHT22;6979;52.116;5.286;2022-08-02T12:08:31;32.40;76.40
13817;DHT22;6979;52.116;5.286;2022-08-02T12:11:00;32.40;76.90
13817;DHT22;6979;52.116;5.286;2022-08-02T12:13:27;32.30;77.10
13817;DHT22;6979;52.116;5.286;2022-08-02T12:15:54;32.30;76.40
13817;DHT22;6979;52.116;5.286;2022-08-02T12:18:48;32.30;76.70
13817;DHT22;6979;52.116;5.286;2022-08-02T12:21:32;32.30;76.10
13817;DHT22;6979;52.116;5.286;2022-08-02T12:23:59;32.40;77.40
13817;DHT22;6979;52.116;5.286;2022-08-02T12:26:26;32.40;76.00
13817;DHT22;6979;52.116;5.286;2022-08-02T12:28:54;32.40;75.60
13817;DHT22;6979;52.116;5.286;2022-08-02T12:31:21;32.40;74.30
13817;DHT22;6979;52.116;5.286;2022-08-02T12:34:11;32.40;74.70
13817;DHT22;6979;52.116;5.286;2022-08-02T12:36:39;32.30;75.90
13817;DHT22;6979;52.116;5.286;2022-08-02T12:39:10;32.30;76.70
13817;DHT22;6979;52.116;5.286;2022-08-02T12:41:38;32.40;76.10
13817;DHT22;6979;52.116;5.286;2022-08-02T12:44:13;32.40;77.50
13817;DHT22;6979;52.116;5.286;2022-08-02T12:46:40;32.50;76.40
13817;DHT22;6979;52.116;5.286;2022-08-02T12:49:16;32.60;77.40
13817;DHT22;6979;52.116;5.286;2022-08-02T12:51:44;32.70;76.10
13817;DHT22;6979;52.116;5.286;2022-08-02T12:54:14;32.70;76.20
13817;DHT22;6979;52.116;5.286;2022-08-02T12:56:42;32.80;75.60
13817;DHT22;6979;52.116;5.286;2022-08-02T12:59:09;32.90;74.60
13817;DHT22;6979;52.116;5.286;2022-08-02T13:01:36;33.00;75.20
13817;DHT22;6979;52.116;5.286;2022-08-02T13:04:03;33.00;75.50
13817;DHT22;6979;52.116;5.286;2022-08-02T13:06:31;33.10;75.10
13817;DHT22;6979;52.116;5.286;2022-08-02T13:08:59;33.20;74.70
13817;DHT22;6979;52.116;5.286;2022-08-02T13:11:26;33.30;75.00
13817;DHT22;6979;52.116;5.286;2022-08-02T13:13:54;33.30;74.80
13817;DHT22;6979;52.116;5.286;2022-08-02T13:16:21;33.40;73.50
13817;DHT22;6979;52.116;5.286;2022-08-02T13:18:49;33.50;73.40
13817;DHT22;6979;52.116;5.286;2022-08-02T13:21:15;33.60;71.70
13817;DHT22;6979;52.116;5.286;2022-08-02T13:23:43;33.70;71.60
13817;DHT22;6979;52.116;5.286;2022-08-02T13:26:11;33.70;71.20
13817;DHT22;6979;52.116;5.286;2022-08-02T13:28:38;33.70;69.50
13817;DHT22;6979;52.116;5.286;2022-08-02T13:31:07;33.60;70.30
13817;DHT22;6979;52.116;5.286;2022-08-02T13:33:34;33.50;70.80
13817;DHT22;6979;52.116;5.286;2022-08-02T13:36:01;33.50;71.70
13817;DHT22;6979;52.116;5.286;2022-08-02T13:38:27;33.40;70.80
13817;DHT22;6979;52.116;5.286;2022-08-02T13:40:56;33.40;70.10
13817;DHT22;6979;52.116;5.286;2022-08-02T13:43:34;33.40;69.70
13817;DHT22;6979;52.116;5.286;2022-08-02T13:46:02;33.40;69.60
13817;DHT22;6979;52.116;5.286;2022-08-02T13:48:29;33.40;68.10
13817;DHT22;6979;52.116;5.286;2022-08-02T13:50:56;33.30;69.40
13817;DHT22;6979;52.116;5.286;2022-08-02T13:53:23;33.20;70.00
13817;DHT22;6979;52.116;5.286;2022-08-02T13:55:50;33.10;71.00
13817;DHT22;6979;52.116;5.286;2022-08-02T13:58:22;33.10;71.70
13817;DHT22;6979;52.116;5.286;2022-08-02T14:00:48;33.10;71.20
13817;DHT22;6979;52.116;5.286;2022-08-02T14:03:15;33.10;70.90
13817;DHT22;6979;52.116;5.286;2022-08-02T14:05:42;33.10;70.70
13817;DHT22;6979;52.116;5.286;2022-08-02T14:08:12;33.10;71.40
13817;DHT22;6979;52.116;5.286;2022-08-02T14:10:39;33.10;70.60
13817;DHT22;6979;52.116;5.286;2022-08-02T14:13:06;33.10;71.70
13817;DHT22;6979;52.116;5.286;2022-08-02T14:15:34;33.10;70.90
13817;DHT22;6979;52.116;5.286;2022-08-02T14:18:01;33.10;70.70
13817;DHT22;6979;52.116;5.286;2022-08-02T14:20:28;33.20;71.30
13817;DHT22;6979;52.116;5.286;2022-08-02T14:22:55;33.20;71.10
13817;DHT22;6979;52.116;5.286;2022-08-02T14:25:21;33.20;69.70
13817;DHT22;6979;52.116;5.286;2022-08-02T14:27:48;33.20;70.30
13817;DHT22;6979;52.116;5.286;2022-08-02T14:30:16;33.20;70.80
13817;DHT22;6979;52.116;5.286;2022-08-02T14:32:44;33.20;71.40
13817;DHT22;6979;52.116;5.286;2022-08-02T14:35:11;33.20;72.20
13817;DHT22;6979;52.116;5.286;2022-08-02T14:37:38;33.30;72.20
13817;DHT22;6979;52.116;5.286;2022-08-02T14:40:06;33.30;72.70
13817;DHT22;6979;52.116;5.286;2022-08-02T14:42:33;33.40;72.50
13817;DHT22;6979;52.116;5.286;2022-08-02T14:44:59;33.50;73.30
13817;DHT22;6979;52.116;5.286;2022-08-02T14:47:27;33.60;73.10
13817;DHT22;6979;52.116;5.286;2022-08-02T14:49:55;33.70;72.40
13817;DHT22;6979;52.116;5.286;2022-08-02T14:52:22;33.70;71.40
13817;DHT22;6979;52.116;5.286;2022-08-02T14:54:48;33.70;72.50
13817;DHT22;6979;52.116;5.286;2022-08-02T14:57:15;33.70;72.00
13817;DHT22;6979;52.116;5.286;2022-08-02T14:59:42;33.60;71.30
13817;DHT22;6979;52.116;5.286;2022-08-02T15:02:09;33.50;73.10
13817;DHT22;6979;52.116;5.286;2022-08-02T15:04:36;33.40;73.40
13817;DHT22;6979;52.116;5.286;2022-08-02T15:07:04;33.40;73.90
13817;DHT22;6979;52.116;5.286;2022-08-02T15:09:31;33.30;74.00
13817;DHT22;6979;52.116;5.286;2022-08-02T15:11:58;33.30;74.00
13817;DHT22;6979;52.116;5.286;2022-08-02T15:14:25;33.30;74.00
13817;DHT22;6979;52.116;5.286;2022-08-02T15:16:52;33.30;74.20
13817;DHT22;6979;52.116;5.286;2022-08-02T15:19:19;33.40;74.40
13817;DHT22;6979;52.116;5.286;2022-08-02T15:21:46;33.40;75.10
13817;DHT22;6979;52.116;5.286;2022-08-02T15:24:14;33.40;75.00
13817;DHT22;6979;52.116;5.286;2022-08-02T15:26:40;33.40;74.60
13817;DHT22;6979;52.116;5.286;2022-08-02T15:29:07;33.40;75.10
13817;DHT22;6979;52.116;5.286;2022-08-02T15:31:34;33.50;74.70
13817;DHT22;6979;52.116;5.286;2022-08-02T15:34:01;33.50;74.70
13817;DHT22;6979;52.116;5.286;2022-08-02T15:36:28;33.50;74.60
13817;DHT22;6979;52.116;5.286;2022-08-02T15:38:55;33.50;75.00
13817;DHT22;6979;52.116;5.286;2022-08-02T15:41:24;33.50;75.00
13817;DHT22;6979;52.116;5.286;2022-08-02T15:43:51;33.50;75.30
13817;DHT22;6979;52.116;5.286;2022-08-02T15:46:20;33.50;75.40
13817;DHT22;6979;52.116;5.286;2022-08-02T15:48:47;33.50;75.10
13817;DHT22;6979;52.116;5.286;2022-08-02T15:51:13;33.50;76.00
13817;DHT22;6979;52.116;5.286;2022-08-02T15:53:40;33.50;75.90
13817;DHT22;6979;52.116;5.286;2022-08-02T15:56:07;33.40;75.50
13817;DHT22;6979;52.116;5.286;2022-08-02T15:58:35;33.40;75.50